sensor_id;sensor_type;location;lat;lon;timestamp;P1;durP1;ratioP1;P2;durP2;ratioP2
64598;SDS011;51008;51.504;11.548;2023-07-22T00:02:27;16.73;;;12.50;;
64598;SDS011;51008;51.504;11.548;2023-07-22T00:07:28;19.10;;;12.77;;
64598;SDS011;51008;51.504;11.548;2023-07-22T00:12:29;14.93;;;12.30;;
64598;SDS011;51008;51.504;11.548;2023-07-22T00:17:30;14.10;;;11.50;;
64598;SDS011;51008;51.504;11.548;2023-07-22T00:22:31;15.85;;;11.48;;
64598;SDS011;51008;51.504;11.548;2023-07-22T00:27:32;17.08;;;12.63;;
64598;SDS011;51008;51.504;11.548;2023-07-22T00:32:33;16.08;;;12.85;;
64598;SDS011;51008;51.504;11.548;2023-07-22T00:37:34;15.65;;;13.05;;
64598;SDS011;51008;51.504;11.548;2023-07-22T00:42:35;15.93;;;11.52;;
64598;SDS011;51008;51.504;11.548;2023-07-22T00:47:36;16.15;;;11.95;;
64598;SDS011;51008;51.504;11.548;2023-07-22T00:52:38;14.65;;;12.25;;
64598;SDS011;51008;51.504;11.548;2023-07-22T00:57:39;17.52;;;14.30;;
64598;SDS011;51008;51.504;11.548;2023-07-22T01:02:40;20.92;;;15.00;;
64598;SDS011;51008;51.504;11.548;2023-07-22T01:07:41;18.13;;;14.20;;
64598;SDS011;51008;51.504;11.548;2023-07-22T01:12:43;17.73;;;13.68;;
64598;SDS011;51008;51.504;11.548;2023-07-22T01:17:44;17.83;;;13.77;;
64598;SDS011;51008;51.504;11.548;2023-07-22T01:22:52;17.85;;;14.50;;
64598;SDS011;51008;51.504;11.548;2023-07-22T01:27:54;23.60;;;14.95;;
64598;SDS011;51008;51.504;11.548;2023-07-22T01:32:55;18.20;;;14.10;;
64598;SDS011;51008;51.504;11.548;2023-07-22T01:37:56;22.13;;;15.82;;
64598;SDS011;51008;51.504;11.548;2023-07-22T01:42:57;21.13;;;15.75;;
64598;SDS011;51008;51.504;11.548;2023-07-22T01:47:58;21.85;;;15.43;;
64598;SDS011;51008;51.504;11.548;2023-07-22T01:52:59;22.00;;;16.30;;
64598;SDS011;51008;51.504;11.548;2023-07-22T01:58:00;22.77;;;17.13;;
64598;SDS011;51008;51.504;11.548;2023-07-22T02:03:01;21.60;;;15.55;;
64598;SDS011;51008;51.504;11.548;2023-07-22T02:08:02;21.65;;;14.27;;
64598;SDS011;51008;51.504;11.548;2023-07-22T02:13:04;22.50;;;13.77;;
64598;SDS011;51008;51.504;11.548;2023-07-22T02:18:05;22.48;;;14.27;;
64598;SDS011;51008;51.504;11.548;2023-07-22T02:23:06;19.17;;;13.05;;
64598;SDS011;51008;51.504;11.548;2023-07-22T02:28:07;20.90;;;14.48;;
64598;SDS011;51008;51.504;11.548;2023-07-22T02:33:08;23.52;;;14.00;;
64598;SDS011;51008;51.504;11.548;2023-07-22T02:38:09;25.63;;;16.40;;
64598;SDS011;51008;51.504;11.548;2023-07-22T02:43:10;26.20;;;16.35;;
64598;SDS011;51008;51.504;11.548;2023-07-22T02:48:11;26.13;;;16.92;;
64598;SDS011;51008;51.504;11.548;2023-07-22T02:53:12;25.80;;;16.35;;
64598;SDS011;51008;51.504;11.548;2023-07-22T02:58:13;24.20;;;16.88;;
64598;SDS011;51008;51.504;11.548;2023-07-22T03:03:14;29.70;;;17.48;;
64598;SDS011;51008;51.504;11.548;2023-07-22T03:08:16;29.38;;;18.90;;
64598;SDS011;51008;51.504;11.548;2023-07-22T03:13:17;29.83;;;17.85;;
64598;SDS011;51008;51.504;11.548;2023-07-22T03:18:18;33.38;;;18.95;;
64598;SDS011;51008;51.504;11.548;2023-07-22T03:23:19;30.13;;;19.98;;
64598;SDS011;51008;51.504;11.548;2023-07-22T03:28:20;30.65;;;18.88;;
64598;SDS011;51008;51.504;11.548;2023-07-22T03:33:21;31.80;;;19.42;;
64598;SDS011;51008;51.504;11.548;2023-07-22T03:38:22;30.42;;;19.10;;
64598;SDS011;51008;51.504;11.548;2023-07-22T03:43:23;36.10;;;18.92;;
64598;SDS011;51008;51.504;11.548;2023-07-22T03:48:24;28.10;;;18.35;;
64598;SDS011;51008;51.504;11.548;2023-07-22T03:53:25;31.45;;;18.92;;
64598;SDS011;51008;51.504;11.548;2023-07-22T03:58:26;33.17;;;19.35;;
64598;SDS011;51008;51.504;11.548;2023-07-22T04:03:27;30.70;;;17.80;;
64598;SDS011;51008;51.504;11.548;2023-07-22T04:08:28;25.00;;;16.58;;
64598;SDS011;51008;51.504;11.548;2023-07-22T04:13:29;31.63;;;16.40;;
64598;SDS011;51008;51.504;11.548;2023-07-22T04:18:30;25.33;;;15.77;;
64598;SDS011;51008;51.504;11.548;2023-07-22T04:23:31;25.63;;;17.05;;
64598;SDS011;51008;51.504;11.548;2023-07-22T04:28:33;26.23;;;16.15;;
64598;SDS011;51008;51.504;11.548;2023-07-22T04:33:34;28.67;;;15.20;;
64598;SDS011;51008;51.504;11.548;2023-07-22T04:38:35;26.85;;;14.45;;
64598;SDS011;51008;51.504;11.548;2023-07-22T04:43:36;26.45;;;15.05;;
64598;SDS011;51008;51.504;11.548;2023-07-22T04:48:37;27.00;;;14.60;;
64598;SDS011;51008;51.504;11.548;2023-07-22T04:53:38;25.38;;;14.60;;
64598;SDS011;51008;51.504;11.548;2023-07-22T04:58:39;27.67;;;15.27;;
64598;SDS011;51008;51.504;11.548;2023-07-22T05:03:41;24.58;;;14.55;;
64598;SDS011;51008;51.504;11.548;2023-07-22T05:08:42;21.77;;;13.93;;
64598;SDS011;51008;51.504;11.548;2023-07-22T05:13:43;24.63;;;13.38;;
64598;SDS011;51008;51.504;11.548;2023-07-22T05:18:44;26.17;;;14.43;;
64598;SDS011;51008;51.504;11.548;2023-07-22T05:23:45;26.75;;;14.15;;
64598;SDS011;51008;51.504;11.548;2023-07-22T05:28:46;25.83;;;13.43;;
64598;SDS011;51008;51.504;11.548;2023-07-22T05:33:47;27.08;;;13.23;;
64598;SDS011;51008;51.504;11.548;2023-07-22T05:38:48;24.15;;;12.13;;
64598;SDS011;51008;51.504;11.548;2023-07-22T05:43:48;25.13;;;11.98;;
64598;SDS011;51008;51.504;11.548;2023-07-22T05:48:50;19.30;;;10.75;;
64598;SDS011;51008;51.504;11.548;2023-07-22T05:53:51;26.10;;;13.00;;
64598;SDS011;51008;51.504;11.548;2023-07-22T05:58:52;19.10;;;10.85;;
64598;SDS011;51008;51.504;11.548;2023-07-22T06:03:53;25.45;;;12.75;;
64598;SDS011;51008;51.504;11.548;2023-07-22T06:08:54;24.42;;;11.80;;
64598;SDS011;51008;51.504;11.548;2023-07-22T06:13:55;21.27;;;10.65;;
64598;SDS011;51008;51.504;11.548;2023-07-22T06:18:56;23.00;;;10.95;;
64598;SDS011;51008;51.504;11.548;2023-07-22T06:23:57;21.13;;;9.48;;
64598;SDS011;51008;51.504;11.548;2023-07-22T06:28:59;20.27;;;9.63;;
64598;SDS011;51008;51.504;11.548;2023-07-22T06:34:00;19.88;;;9.52;;
64598;SDS011;51008;51.504;11.548;2023-07-22T06:39:01;22.60;;;8.38;;
64598;SDS011;51008;51.504;11.548;2023-07-22T06:44:02;16.33;;;9.00;;
64598;SDS011;51008;51.504;11.548;2023-07-22T06:49:03;16.63;;;8.20;;
64598;SDS011;51008;51.504;11.548;2023-07-22T06:54:05;16.83;;;8.45;;
64598;SDS011;51008;51.504;11.548;2023-07-22T06:59:06;16.63;;;8.73;;
64598;SDS011;51008;51.504;11.548;2023-07-22T07:04:07;15.32;;;8.35;;
64598;SDS011;51008;51.504;11.548;2023-07-22T07:09:08;16.25;;;8.30;;
64598;SDS011;51008;51.504;11.548;2023-07-22T07:14:12;17.85;;;8.50;;
64598;SDS011;51008;51.504;11.548;2023-07-22T07:19:13;19.15;;;8.13;;
64598;SDS011;51008;51.504;11.548;2023-07-22T07:24:14;15.45;;;7.68;;
64598;SDS011;51008;51.504;11.548;2023-07-22T07:29:15;14.50;;;7.63;;
64598;SDS011;51008;51.504;11.548;2023-07-22T07:34:16;16.30;;;7.68;;
64598;SDS011;51008;51.504;11.548;2023-07-22T07:39:17;12.98;;;7.13;;
64598;SDS011;51008;51.504;11.548;2023-07-22T07:44:18;13.23;;;7.53;;
64598;SDS011;51008;51.504;11.548;2023-07-22T07:49:19;17.60;;;7.72;;
64598;SDS011;51008;51.504;11.548;2023-07-22T07:54:20;20.60;;;7.20;;
64598;SDS011;51008;51.504;11.548;2023-07-22T07:59:21;12.98;;;6.78;;
64598;SDS011;51008;51.504;11.548;2023-07-22T08:04:22;16.48;;;7.65;;
64598;SDS011;51008;51.504;11.548;2023-07-22T08:09:23;12.32;;;7.22;;
64598;SDS011;51008;51.504;11.548;2023-07-22T08:14:24;16.02;;;8.82;;
64598;SDS011;51008;51.504;11.548;2023-07-22T08:19:25;14.60;;;7.78;;
64598;SDS011;51008;51.504;11.548;2023-07-22T08:24:26;15.85;;;8.07;;
64598;SDS011;51008;51.504;11.548;2023-07-22T08:29:27;15.15;;;7.30;;
64598;SDS011;51008;51.504;11.548;2023-07-22T08:34:28;21.98;;;7.78;;
64598;SDS011;51008;51.504;11.548;2023-07-22T08:39:31;13.48;;;7.88;;
64598;SDS011;51008;51.504;11.548;2023-07-22T08:44:32;14.63;;;7.37;;
64598;SDS011;51008;51.504;11.548;2023-07-22T08:49:34;13.38;;;7.03;;
64598;SDS011;51008;51.504;11.548;2023-07-22T08:54:35;13.85;;;7.43;;
64598;SDS011;51008;51.504;11.548;2023-07-22T08:59:37;15.13;;;7.70;;
64598;SDS011;51008;51.504;11.548;2023-07-22T09:04:39;12.98;;;6.85;;
64598;SDS011;51008;51.504;11.548;2023-07-22T09:09:40;11.40;;;6.63;;
64598;SDS011;51008;51.504;11.548;2023-07-22T09:14:41;12.73;;;6.70;;
64598;SDS011;51008;51.504;11.548;2023-07-22T09:19:45;12.43;;;6.22;;
64598;SDS011;51008;51.504;11.548;2023-07-22T09:24:46;14.27;;;5.70;;
64598;SDS011;51008;51.504;11.548;2023-07-22T09:29:47;9.18;;;5.55;;
64598;SDS011;51008;51.504;11.548;2023-07-22T09:34:54;10.00;;;5.65;;
64598;SDS011;51008;51.504;11.548;2023-07-22T09:39:55;8.00;;;5.28;;
64598;SDS011;51008;51.504;11.548;2023-07-22T09:44:57;8.90;;;5.63;;
64598;SDS011;51008;51.504;11.548;2023-07-22T09:49:59;11.82;;;5.80;;
64598;SDS011;51008;51.504;11.548;2023-07-22T09:55:00;9.43;;;5.60;;
64598;SDS011;51008;51.504;11.548;2023-07-22T10:00:01;9.90;;;5.55;;
64598;SDS011;51008;51.504;11.548;2023-07-22T10:05:13;12.45;;;5.80;;
64598;SDS011;51008;51.504;11.548;2023-07-22T10:10:31;9.88;;;5.72;;
64598;SDS011;51008;51.504;11.548;2023-07-22T10:15:34;9.23;;;5.85;;
64598;SDS011;51008;51.504;11.548;2023-07-22T10:20:35;8.35;;;5.15;;
64598;SDS011;51008;51.504;11.548;2023-07-22T10:25:37;10.77;;;5.75;;
64598;SDS011;51008;51.504;11.548;2023-07-22T10:30:40;9.38;;;5.65;;
64598;SDS011;51008;51.504;11.548;2023-07-22T10:35:41;8.50;;;4.95;;
64598;SDS011;51008;51.504;11.548;2023-07-22T10:40:47;9.68;;;5.90;;
64598;SDS011;51008;51.504;11.548;2023-07-22T10:45:50;9.35;;;5.88;;
64598;SDS011;51008;51.504;11.548;2023-07-22T10:50:54;12.43;;;6.00;;
64598;SDS011;51008;51.504;11.548;2023-07-22T10:56:03;9.52;;;5.80;;
64598;SDS011;51008;51.504;11.548;2023-07-22T11:06:29;10.57;;;5.93;;
64598;SDS011;51008;51.504;11.548;2023-07-22T11:11:48;10.45;;;6.47;;
64598;SDS011;51008;51.504;11.548;2023-07-22T11:16:49;9.55;;;5.75;;
64598;SDS011;51008;51.504;11.548;2023-07-22T11:21:51;11.38;;;6.30;;
64598;SDS011;51008;51.504;11.548;2023-07-22T11:26:54;9.65;;;6.00;;
64598;SDS011;51008;51.504;11.548;2023-07-22T11:31:55;9.15;;;6.28;;
64598;SDS011;51008;51.504;11.548;2023-07-22T11:36:56;9.85;;;6.15;;
64598;SDS011;51008;51.504;11.548;2023-07-22T11:41:59;11.15;;;6.30;;
64598;SDS011;51008;51.504;11.548;2023-07-22T11:47:05;9.80;;;6.18;;
64598;SDS011;51008;51.504;11.548;2023-07-22T11:52:11;10.70;;;6.50;;
64598;SDS011;51008;51.504;11.548;2023-07-22T11:57:17;12.68;;;7.40;;
64598;SDS011;51008;51.504;11.548;2023-07-22T12:02:24;9.55;;;6.63;;
64598;SDS011;51008;51.504;11.548;2023-07-22T12:07:30;10.73;;;6.47;;
64598;SDS011;51008;51.504;11.548;2023-07-22T12:12:36;10.15;;;6.65;;
64598;SDS011;51008;51.504;11.548;2023-07-22T12:22:59;10.25;;;6.50;;
64598;SDS011;51008;51.504;11.548;2023-07-22T12:28:00;10.73;;;6.18;;
64598;SDS011;51008;51.504;11.548;2023-07-22T12:33:01;14.15;;;6.10;;
64598;SDS011;51008;51.504;11.548;2023-07-22T12:38:02;10.95;;;6.35;;
64598;SDS011;51008;51.504;11.548;2023-07-22T12:43:03;12.45;;;6.40;;
64598;SDS011;51008;51.504;11.548;2023-07-22T12:48:04;15.40;;;6.50;;
64598;SDS011;51008;51.504;11.548;2023-07-22T12:53:06;10.48;;;6.35;;
64598;SDS011;51008;51.504;11.548;2023-07-22T12:58:07;10.82;;;6.55;;
64598;SDS011;51008;51.504;11.548;2023-07-22T13:03:08;13.32;;;7.15;;
64598;SDS011;51008;51.504;11.548;2023-07-22T13:08:09;10.82;;;7.00;;
64598;SDS011;51008;51.504;11.548;2023-07-22T13:13:10;10.90;;;6.72;;
64598;SDS011;51008;51.504;11.548;2023-07-22T13:18:11;9.55;;;6.43;;
64598;SDS011;51008;51.504;11.548;2023-07-22T13:23:12;9.48;;;6.10;;
64598;SDS011;51008;51.504;11.548;2023-07-22T13:28:13;8.98;;;5.75;;
64598;SDS011;51008;51.504;11.548;2023-07-22T13:33:14;9.77;;;6.32;;
64598;SDS011;51008;51.504;11.548;2023-07-22T13:38:15;10.40;;;5.95;;
64598;SDS011;51008;51.504;11.548;2023-07-22T13:43:16;9.32;;;6.75;;
64598;SDS011;51008;51.504;11.548;2023-07-22T13:48:17;8.65;;;6.10;;
64598;SDS011;51008;51.504;11.548;2023-07-22T13:53:18;9.30;;;5.53;;
64598;SDS011;51008;51.504;11.548;2023-07-22T13:58:19;11.77;;;5.57;;
64598;SDS011;51008;51.504;11.548;2023-07-22T14:03:20;14.07;;;5.93;;
64598;SDS011;51008;51.504;11.548;2023-07-22T14:08:21;9.05;;;5.43;;
64598;SDS011;51008;51.504;11.548;2023-07-22T14:13:22;9.90;;;5.45;;
64598;SDS011;51008;51.504;11.548;2023-07-22T14:18:23;14.32;;;6.07;;
64598;SDS011;51008;51.504;11.548;2023-07-22T14:23:26;14.65;;;6.15;;
64598;SDS011;51008;51.504;11.548;2023-07-22T14:28:27;10.52;;;5.25;;
64598;SDS011;51008;51.504;11.548;2023-07-22T14:33:28;10.05;;;5.22;;
64598;SDS011;51008;51.504;11.548;2023-07-22T14:38:29;7.43;;;4.70;;
64598;SDS011;51008;51.504;11.548;2023-07-22T14:43:30;7.00;;;4.75;;
64598;SDS011;51008;51.504;11.548;2023-07-22T14:48:31;10.57;;;5.43;;
64598;SDS011;51008;51.504;11.548;2023-07-22T14:53:32;8.85;;;5.13;;
64598;SDS011;51008;51.504;11.548;2023-07-22T14:58:33;12.05;;;5.50;;
64598;SDS011;51008;51.504;11.548;2023-07-22T15:03:34;9.60;;;5.38;;
64598;SDS011;51008;51.504;11.548;2023-07-22T15:08:36;8.00;;;5.10;;
64598;SDS011;51008;51.504;11.548;2023-07-22T15:13:37;8.82;;;5.57;;
64598;SDS011;51008;51.504;11.548;2023-07-22T15:18:38;7.85;;;5.13;;
64598;SDS011;51008;51.504;11.548;2023-07-22T15:23:39;15.23;;;5.55;;
64598;SDS011;51008;51.504;11.548;2023-07-22T15:28:40;9.32;;;5.15;;
64598;SDS011;51008;51.504;11.548;2023-07-22T15:33:41;12.40;;;7.25;;
64598;SDS011;51008;51.504;11.548;2023-07-22T15:38:43;14.07;;;8.23;;
64598;SDS011;51008;51.504;11.548;2023-07-22T15:43:44;11.55;;;5.93;;
64598;SDS011;51008;51.504;11.548;2023-07-22T15:48:45;12.13;;;5.57;;
64598;SDS011;51008;51.504;11.548;2023-07-22T15:53:46;10.60;;;5.75;;
64598;SDS011;51008;51.504;11.548;2023-07-22T15:58:47;10.23;;;5.90;;
64598;SDS011;51008;51.504;11.548;2023-07-22T16:03:48;14.75;;;5.60;;
64598;SDS011;51008;51.504;11.548;2023-07-22T16:08:49;8.85;;;5.10;;
64598;SDS011;51008;51.504;11.548;2023-07-22T16:13:50;8.20;;;5.45;;
64598;SDS011;51008;51.504;11.548;2023-07-22T16:18:51;8.15;;;5.50;;
64598;SDS011;51008;51.504;11.548;2023-07-22T16:23:52;9.18;;;5.50;;
64598;SDS011;51008;51.504;11.548;2023-07-22T16:28:53;10.93;;;5.45;;
64598;SDS011;51008;51.504;11.548;2023-07-22T16:33:54;10.25;;;5.55;;
64598;SDS011;51008;51.504;11.548;2023-07-22T16:38:55;10.45;;;5.30;;
64598;SDS011;51008;51.504;11.548;2023-07-22T16:43:56;7.53;;;4.72;;
64598;SDS011;51008;51.504;11.548;2023-07-22T16:48:58;12.40;;;6.53;;
64598;SDS011;51008;51.504;11.548;2023-07-22T16:54:00;9.45;;;5.47;;
64598;SDS011;51008;51.504;11.548;2023-07-22T16:59:01;8.95;;;5.18;;
64598;SDS011;51008;51.504;11.548;2023-07-22T17:04:02;8.52;;;4.60;;
64598;SDS011;51008;51.504;11.548;2023-07-22T17:09:04;8.77;;;5.10;;
64598;SDS011;51008;51.504;11.548;2023-07-22T17:14:05;12.40;;;5.18;;
64598;SDS011;51008;51.504;11.548;2023-07-22T17:19:06;8.93;;;4.97;;
64598;SDS011;51008;51.504;11.548;2023-07-22T17:24:07;9.40;;;4.57;;
64598;SDS011;51008;51.504;11.548;2023-07-22T17:29:08;10.30;;;4.90;;
64598;SDS011;51008;51.504;11.548;2023-07-22T17:34:09;15.57;;;5.32;;
64598;SDS011;51008;51.504;11.548;2023-07-22T17:39:10;12.32;;;5.43;;
64598;SDS011;51008;51.504;11.548;2023-07-22T17:44:11;17.10;;;5.78;;
64598;SDS011;51008;51.504;11.548;2023-07-22T17:49:12;9.90;;;5.03;;
64598;SDS011;51008;51.504;11.548;2023-07-22T17:54:13;11.30;;;5.53;;
64598;SDS011;51008;51.504;11.548;2023-07-22T17:59:14;12.82;;;5.22;;
64598;SDS011;51008;51.504;11.548;2023-07-22T18:04:15;8.35;;;5.60;;
64598;SDS011;51008;51.504;11.548;2023-07-22T18:09:16;11.60;;;5.53;;
64598;SDS011;51008;51.504;11.548;2023-07-22T18:14:18;13.00;;;5.57;;
64598;SDS011;51008;51.504;11.548;2023-07-22T18:19:19;13.45;;;5.85;;
64598;SDS011;51008;51.504;11.548;2023-07-22T18:24:20;12.40;;;5.70;;
64598;SDS011;51008;51.504;11.548;2023-07-22T18:29:21;10.13;;;5.25;;
64598;SDS011;51008;51.504;11.548;2023-07-22T18:34:22;9.38;;;4.93;;
64598;SDS011;51008;51.504;11.548;2023-07-22T18:39:26;9.10;;;5.18;;
64598;SDS011;51008;51.504;11.548;2023-07-22T18:44:28;11.80;;;5.78;;
64598;SDS011;51008;51.504;11.548;2023-07-22T18:49:29;8.65;;;5.60;;
64598;SDS011;51008;51.504;11.548;2023-07-22T18:54:30;9.73;;;5.15;;
64598;SDS011;51008;51.504;11.548;2023-07-22T18:59:31;9.40;;;5.32;;
64598;SDS011;51008;51.504;11.548;2023-07-22T19:04:32;10.73;;;5.10;;
64598;SDS011;51008;51.504;11.548;2023-07-22T19:09:34;13.20;;;6.70;;
64598;SDS011;51008;51.504;11.548;2023-07-22T19:14:35;15.45;;;5.97;;
64598;SDS011;51008;51.504;11.548;2023-07-22T19:19:36;11.50;;;6.20;;
64598;SDS011;51008;51.504;11.548;2023-07-22T19:24:37;14.15;;;6.72;;
64598;SDS011;51008;51.504;11.548;2023-07-22T19:29:38;13.07;;;6.78;;
64598;SDS011;51008;51.504;11.548;2023-07-22T19:34:39;12.43;;;7.10;;
64598;SDS011;51008;51.504;11.548;2023-07-22T19:39:40;13.85;;;7.22;;
64598;SDS011;51008;51.504;11.548;2023-07-22T19:44:41;13.02;;;5.80;;
64598;SDS011;51008;51.504;11.548;2023-07-22T19:49:43;14.70;;;7.50;;
64598;SDS011;51008;51.504;11.548;2023-07-22T19:54:44;13.88;;;6.40;;
64598;SDS011;51008;51.504;11.548;2023-07-22T19:59:45;14.10;;;7.43;;
64598;SDS011;51008;51.504;11.548;2023-07-22T20:04:46;14.82;;;7.53;;
64598;SDS011;51008;51.504;11.548;2023-07-22T20:09:47;16.10;;;7.20;;
64598;SDS011;51008;51.504;11.548;2023-07-22T20:14:48;14.43;;;7.20;;
64598;SDS011;51008;51.504;11.548;2023-07-22T20:19:49;9.35;;;5.93;;
64598;SDS011;51008;51.504;11.548;2023-07-22T20:24:50;12.15;;;6.35;;
64598;SDS011;51008;51.504;11.548;2023-07-22T20:29:53;12.23;;;6.47;;
64598;SDS011;51008;51.504;11.548;2023-07-22T20:34:55;13.35;;;7.35;;
64598;SDS011;51008;51.504;11.548;2023-07-22T20:39:59;14.57;;;7.65;;
64598;SDS011;51008;51.504;11.548;2023-07-22T20:45:00;18.38;;;8.30;;
64598;SDS011;51008;51.504;11.548;2023-07-22T20:50:01;14.30;;;7.38;;
64598;SDS011;51008;51.504;11.548;2023-07-22T20:55:03;16.88;;;8.32;;
64598;SDS011;51008;51.504;11.548;2023-07-22T21:00:05;12.98;;;7.97;;
64598;SDS011;51008;51.504;11.548;2023-07-22T21:05:08;14.47;;;8.50;;
64598;SDS011;51008;51.504;11.548;2023-07-22T21:10:09;21.48;;;13.05;;
64598;SDS011;51008;51.504;11.548;2023-07-22T21:15:11;29.10;;;20.70;;
64598;SDS011;51008;51.504;11.548;2023-07-22T21:20:11;42.42;;;28.20;;
64598;SDS011;51008;51.504;11.548;2023-07-22T21:25:12;36.45;;;21.02;;
64598;SDS011;51008;51.504;11.548;2023-07-22T21:30:14;20.30;;;11.73;;
64598;SDS011;51008;51.504;11.548;2023-07-22T21:35:15;21.08;;;12.25;;
64598;SDS011;51008;51.504;11.548;2023-07-22T21:40:16;12.82;;;6.95;;
64598;SDS011;51008;51.504;11.548;2023-07-22T21:45:17;13.20;;;6.38;;
64598;SDS011;51008;51.504;11.548;2023-07-22T21:50:18;13.05;;;6.15;;
64598;SDS011;51008;51.504;11.548;2023-07-22T21:55:19;11.80;;;5.68;;
64598;SDS011;51008;51.504;11.548;2023-07-22T22:00:23;10.35;;;5.30;;
64598;SDS011;51008;51.504;11.548;2023-07-22T22:05:24;11.57;;;5.70;;
64598;SDS011;51008;51.504;11.548;2023-07-22T22:10:26;11.00;;;5.30;;
64598;SDS011;51008;51.504;11.548;2023-07-22T22:15:27;10.90;;;5.40;;
64598;SDS011;51008;51.504;11.548;2023-07-22T22:20:28;9.98;;;5.57;;
64598;SDS011;51008;51.504;11.548;2023-07-22T22:25:29;14.73;;;5.90;;
64598;SDS011;51008;51.504;11.548;2023-07-22T22:30:30;9.13;;;5.32;;
64598;SDS011;51008;51.504;11.548;2023-07-22T22:35:31;10.82;;;5.40;;
64598;SDS011;51008;51.504;11.548;2023-07-22T22:40:32;10.25;;;5.70;;
64598;SDS011;51008;51.504;11.548;2023-07-22T22:45:33;12.38;;;5.75;;
64598;SDS011;51008;51.504;11.548;2023-07-22T22:50:34;11.00;;;5.75;;
64598;SDS011;51008;51.504;11.548;2023-07-22T22:55:35;7.80;;;4.88;;
64598;SDS011;51008;51.504;11.548;2023-07-22T23:00:37;11.48;;;5.53;;
64598;SDS011;51008;51.504;11.548;2023-07-22T23:05:38;12.45;;;5.18;;
64598;SDS011;51008;51.504;11.548;2023-07-22T23:10:44;10.40;;;5.18;;
64598;SDS011;51008;51.504;11.548;2023-07-22T23:15:46;10.77;;;5.90;;
64598;SDS011;51008;51.504;11.548;2023-07-22T23:20:47;10.07;;;5.57;;
64598;SDS011;51008;51.504;11.548;2023-07-22T23:25:48;12.10;;;5.32;;
64598;SDS011;51008;51.504;11.548;2023-07-22T23:30:49;10.77;;;5.35;;
64598;SDS011;51008;51.504;11.548;2023-07-22T23:35:53;8.95;;;5.03;;
64598;SDS011;51008;51.504;11.548;2023-07-22T23:40:58;10.73;;;5.15;;
64598;SDS011;51008;51.504;11.548;2023-07-22T23:45:59;11.35;;;5.40;;
64598;SDS011;51008;51.504;11.548;2023-07-22T23:51:00;10.77;;;5.25;;
64598;SDS011;51008;51.504;11.548;2023-07-22T23:56:01;12.25;;;5.60;;
